sensor_id;sensor_type;location;lat;lon;timestamp;pressure;altitude;pressure_sealevel;temperature;humidity
61814;BME280;57055;-35.296;149.168;2023-02-03T00:00:14;93246.57;;;17.24;31.31
61814;BME280;57055;-35.296;149.168;2023-02-03T00:02:43;93239.44;;;17.91;30.51
61814;BME280;57055;-35.296;149.168;2023-02-03T00:05:12;93247.34;;;17.70;30.52
61814;BME280;57055;-35.296;149.168;2023-02-03T00:07:41;93242.32;;;17.62;30.61
61814;BME280;57055;-35.296;149.168;2023-02-03T00:10:10;93243.43;;;17.52;30.73
61814;BME280;57055;-35.296;149.168;2023-02-03T00:12:39;93249.26;;;17.37;30.64
61814;BME280;57055;-35.296;149.168;2023-02-03T00:15:08;93255.59;;;17.16;31.39
61814;BME280;57055;-35.296;149.168;2023-02-03T00:17:37;93258.64;;;17.29;31.08
61814;BME280;57055;-35.296;149.168;2023-02-03T00:20:06;93250.41;;;17.14;31.32
61814;BME280;57055;-35.296;149.168;2023-02-03T00:22:36;93264.91;;;17.12;31.27
61814;BME280;57055;-35.296;149.168;2023-02-03T00:25:05;93265.60;;;16.89;30.81
61814;BME280;57055;-35.296;149.168;2023-02-03T00:27:34;93269.45;;;16.82;31.69
61814;BME280;57055;-35.296;149.168;2023-02-03T00:30:04;93279.40;;;16.68;31.48
61814;BME280;57055;-35.296;149.168;2023-02-03T00:32:33;93273.86;;;16.49;31.36
61814;BME280;57055;-35.296;149.168;2023-02-03T00:35:01;93279.51;;;16.65;31.12
61814;BME280;57055;-35.296;149.168;2023-02-03T00:37:30;93290.32;;;17.09;31.14
61814;BME280;57055;-35.296;149.168;2023-02-03T00:39:59;93284.68;;;17.05;30.51
61814;BME280;57055;-35.296;149.168;2023-02-03T00:42:28;93278.91;;;16.92;30.21
61814;BME280;57055;-35.296;149.168;2023-02-03T00:44:56;93274.17;;;17.43;30.33
61814;BME280;57055;-35.296;149.168;2023-02-03T00:47:25;93275.71;;;17.16;30.57
61814;BME280;57055;-35.296;149.168;2023-02-03T00:49:54;93282.78;;;17.27;30.13
61814;BME280;57055;-35.296;149.168;2023-02-03T00:52:22;93282.42;;;17.31;29.09
61814;BME280;57055;-35.296;149.168;2023-02-03T00:54:52;93285.41;;;17.12;29.76
61814;BME280;57055;-35.296;149.168;2023-02-03T00:57:20;93277.73;;;17.48;29.73
61814;BME280;57055;-35.296;149.168;2023-02-03T00:59:49;93291.73;;;17.32;30.29
61814;BME280;57055;-35.296;149.168;2023-02-03T01:02:17;93285.93;;;17.55;29.34
61814;BME280;57055;-35.296;149.168;2023-02-03T01:04:46;93285.92;;;17.59;29.02
61814;BME280;57055;-35.296;149.168;2023-02-03T01:07:16;93278.29;;;17.87;28.86
61814;BME280;57055;-35.296;149.168;2023-02-03T01:09:45;93282.71;;;17.81;28.30
61814;BME280;57055;-35.296;149.168;2023-02-03T01:12:13;93291.52;;;17.52;28.32
61814;BME280;57055;-35.296;149.168;2023-02-03T01:14:42;93287.12;;;17.81;28.10
61814;BME280;57055;-35.296;149.168;2023-02-03T01:17:11;93290.55;;;17.73;28.21
61814;BME280;57055;-35.296;149.168;2023-02-03T01:19:39;93288.03;;;17.73;28.52
61814;BME280;57055;-35.296;149.168;2023-02-03T01:22:08;93280.73;;;18.21;28.77
61814;BME280;57055;-35.296;149.168;2023-02-03T01:24:36;93290.90;;;17.90;28.75
61814;BME280;57055;-35.296;149.168;2023-02-03T01:27:06;93302.86;;;17.88;28.69
61814;BME280;57055;-35.296;149.168;2023-02-03T01:29:34;93318.71;;;17.70;28.96
61814;BME280;57055;-35.296;149.168;2023-02-03T01:32:04;93303.14;;;17.21;28.84
61814;BME280;57055;-35.296;149.168;2023-02-03T01:34:32;93307.44;;;17.36;28.95
61814;BME280;57055;-35.296;149.168;2023-02-03T01:37:01;93302.03;;;17.15;27.82
61814;BME280;57055;-35.296;149.168;2023-02-03T01:39:30;93301.22;;;16.87;28.83
61814;BME280;57055;-35.296;149.168;2023-02-03T01:41:59;93297.14;;;17.03;29.31
61814;BME280;57055;-35.296;149.168;2023-02-03T01:44:44;93284.34;;;17.24;30.06
61814;BME280;57055;-35.296;149.168;2023-02-03T01:47:20;93288.12;;;17.70;29.59
61814;BME280;57055;-35.296;149.168;2023-02-03T01:49:55;93281.10;;;17.57;28.08
61814;BME280;57055;-35.296;149.168;2023-02-03T01:52:26;93282.61;;;17.95;28.36
61814;BME280;57055;-35.296;149.168;2023-02-03T01:54:59;93290.21;;;17.75;28.02
61814;BME280;57055;-35.296;149.168;2023-02-03T01:57:33;93289.34;;;17.98;28.04
61814;BME280;57055;-35.296;149.168;2023-02-03T02:00:06;93294.20;;;17.61;28.18
61814;BME280;57055;-35.296;149.168;2023-02-03T02:02:35;93290.21;;;17.71;28.12
61814;BME280;57055;-35.296;149.168;2023-02-03T02:05:08;93294.52;;;17.53;28.52
61814;BME280;57055;-35.296;149.168;2023-02-03T02:07:39;93294.32;;;17.62;28.23
61814;BME280;57055;-35.296;149.168;2023-02-03T02:10:09;93291.91;;;17.57;28.62
61814;BME280;57055;-35.296;149.168;2023-02-03T02:12:38;93289.62;;;17.80;28.91
61814;BME280;57055;-35.296;149.168;2023-02-03T02:15:09;93284.61;;;17.81;29.21
61814;BME280;57055;-35.296;149.168;2023-02-03T02:18:02;93290.81;;;17.99;28.93
61814;BME280;57055;-35.296;149.168;2023-02-03T02:21:43;93278.77;;;18.07;28.46
61814;BME280;57055;-35.296;149.168;2023-02-03T02:24:46;93276.67;;;18.04;28.31
61814;BME280;57055;-35.296;149.168;2023-02-03T02:28:46;93296.07;;;18.40;27.53
61814;BME280;57055;-35.296;149.168;2023-02-03T02:31:48;93293.41;;;17.89;28.28
61814;BME280;57055;-35.296;149.168;2023-02-03T02:34:29;93294.87;;;17.83;27.99
61814;BME280;57055;-35.296;149.168;2023-02-03T02:37:08;93294.78;;;17.51;28.59
61814;BME280;57055;-35.296;149.168;2023-02-03T02:39:49;93294.44;;;17.63;28.63
61814;BME280;57055;-35.296;149.168;2023-02-03T02:42:27;93301.38;;;17.82;28.24
61814;BME280;57055;-35.296;149.168;2023-02-03T02:45:05;93304.57;;;17.83;28.80
61814;BME280;57055;-35.296;149.168;2023-02-03T02:47:36;93298.20;;;17.80;28.94
61814;BME280;57055;-35.296;149.168;2023-02-03T02:50:10;93308.68;;;17.76;28.43
61814;BME280;57055;-35.296;149.168;2023-02-03T02:52:44;93308.12;;;17.72;28.22
61814;BME280;57055;-35.296;149.168;2023-02-03T02:55:19;93300.17;;;17.73;28.42
61814;BME280;57055;-35.296;149.168;2023-02-03T02:57:49;93289.27;;;17.79;27.89
61814;BME280;57055;-35.296;149.168;2023-02-03T03:00:20;93300.46;;;18.02;28.39
61814;BME280;57055;-35.296;149.168;2023-02-03T03:02:49;93296.74;;;17.74;28.22
61814;BME280;57055;-35.296;149.168;2023-02-03T03:05:18;93290.34;;;17.87;28.21
61814;BME280;57055;-35.296;149.168;2023-02-03T03:07:50;93289.25;;;18.24;28.11
61814;BME280;57055;-35.296;149.168;2023-02-03T03:10:25;93295.54;;;18.43;28.01
61814;BME280;57055;-35.296;149.168;2023-02-03T03:13:00;93289.58;;;18.59;27.80
61814;BME280;57055;-35.296;149.168;2023-02-03T03:15:31;93299.29;;;18.44;27.48
61814;BME280;57055;-35.296;149.168;2023-02-03T03:18:05;93299.36;;;18.05;27.32
61814;BME280;57055;-35.296;149.168;2023-02-03T03:20:38;93305.74;;;18.16;27.96
61814;BME280;57055;-35.296;149.168;2023-02-03T03:23:13;93299.92;;;18.07;28.03
61814;BME280;57055;-35.296;149.168;2023-02-03T03:25:48;93303.79;;;17.66;28.53
61814;BME280;57055;-35.296;149.168;2023-02-03T03:28:23;93294.82;;;17.93;28.83
61814;BME280;57055;-35.296;149.168;2023-02-03T03:30:53;93292.46;;;18.24;28.89
61814;BME280;57055;-35.296;149.168;2023-02-03T03:33:22;93299.38;;;17.79;28.84
61814;BME280;57055;-35.296;149.168;2023-02-03T03:35:56;93298.90;;;17.91;28.85
61814;BME280;57055;-35.296;149.168;2023-02-03T03:38:33;93304.62;;;18.48;28.96
61814;BME280;57055;-35.296;149.168;2023-02-03T03:41:09;93293.66;;;18.30;28.98
61814;BME280;57055;-35.296;149.168;2023-02-03T03:43:42;93296.61;;;18.23;29.08
61814;BME280;57055;-35.296;149.168;2023-02-03T03:46:15;93291.81;;;18.11;29.32
61814;BME280;57055;-35.296;149.168;2023-02-03T03:48:51;93299.83;;;18.51;28.89
61814;BME280;57055;-35.296;149.168;2023-02-03T03:51:26;93302.62;;;18.60;28.49
61814;BME280;57055;-35.296;149.168;2023-02-03T03:54:02;93303.51;;;18.60;28.11
61814;BME280;57055;-35.296;149.168;2023-02-03T03:56:37;93300.99;;;18.81;28.41
61814;BME280;57055;-35.296;149.168;2023-02-03T03:59:08;93306.75;;;18.83;27.15
61814;BME280;57055;-35.296;149.168;2023-02-03T04:01:39;93299.99;;;18.47;27.47
61814;BME280;57055;-35.296;149.168;2023-02-03T04:04:10;93294.85;;;18.90;27.94
61814;BME280;57055;-35.296;149.168;2023-02-03T04:06:40;93308.56;;;19.13;27.68
61814;BME280;57055;-35.296;149.168;2023-02-03T04:09:09;93293.02;;;18.88;26.94
61814;BME280;57055;-35.296;149.168;2023-02-03T04:11:38;93292.44;;;19.26;27.72
61814;BME280;57055;-35.296;149.168;2023-02-03T04:14:07;93300.41;;;19.05;25.96
61814;BME280;57055;-35.296;149.168;2023-02-03T04:16:35;93298.87;;;19.05;26.40
61814;BME280;57055;-35.296;149.168;2023-02-03T04:19:04;93300.97;;;19.23;26.24
61814;BME280;57055;-35.296;149.168;2023-02-03T04:21:33;93305.38;;;19.22;26.46
61814;BME280;57055;-35.296;149.168;2023-02-03T04:24:02;93298.00;;;19.15;26.85
61814;BME280;57055;-35.296;149.168;2023-02-03T04:26:30;93307.14;;;18.70;27.18
61814;BME280;57055;-35.296;149.168;2023-02-03T04:28:59;93296.96;;;19.02;27.03
61814;BME280;57055;-35.296;149.168;2023-02-03T04:31:28;93292.91;;;18.83;27.42
61814;BME280;57055;-35.296;149.168;2023-02-03T04:33:57;93293.86;;;18.58;27.47
61814;BME280;57055;-35.296;149.168;2023-02-03T04:36:26;93301.20;;;18.51;27.30
61814;BME280;57055;-35.296;149.168;2023-02-03T04:38:55;93302.75;;;18.46;26.90
61814;BME280;57055;-35.296;149.168;2023-02-03T04:41:24;93306.90;;;18.51;26.38
61814;BME280;57055;-35.296;149.168;2023-02-03T04:43:53;93314.10;;;18.38;27.00
61814;BME280;57055;-35.296;149.168;2023-02-03T04:46:21;93311.85;;;18.52;27.57
61814;BME280;57055;-35.296;149.168;2023-02-03T04:48:50;93319.34;;;18.36;27.39
61814;BME280;57055;-35.296;149.168;2023-02-03T04:51:18;93318.72;;;18.23;27.80
61814;BME280;57055;-35.296;149.168;2023-02-03T04:53:47;93321.66;;;18.32;27.60
61814;BME280;57055;-35.296;149.168;2023-02-03T04:56:16;93318.93;;;18.28;27.49
61814;BME280;57055;-35.296;149.168;2023-02-03T04:58:45;93324.01;;;18.34;27.39
61814;BME280;57055;-35.296;149.168;2023-02-03T05:01:14;93327.42;;;18.13;27.37
61814;BME280;57055;-35.296;149.168;2023-02-03T05:03:42;93329.58;;;18.52;27.02
61814;BME280;57055;-35.296;149.168;2023-02-03T05:06:11;93325.58;;;18.62;27.18
61814;BME280;57055;-35.296;149.168;2023-02-03T05:08:39;93320.87;;;18.56;27.03
61814;BME280;57055;-35.296;149.168;2023-02-03T05:11:08;93318.04;;;18.86;27.28
61814;BME280;57055;-35.296;149.168;2023-02-03T05:13:37;93322.19;;;19.07;26.26
61814;BME280;57055;-35.296;149.168;2023-02-03T05:16:06;93325.65;;;18.79;25.90
61814;BME280;57055;-35.296;149.168;2023-02-03T05:18:35;93316.20;;;18.96;26.35
61814;BME280;57055;-35.296;149.168;2023-02-03T05:21:04;93319.60;;;18.94;27.09
61814;BME280;57055;-35.296;149.168;2023-02-03T05:23:33;93315.77;;;19.06;26.68
61814;BME280;57055;-35.296;149.168;2023-02-03T05:26:02;93315.98;;;18.77;26.65
61814;BME280;57055;-35.296;149.168;2023-02-03T05:28:31;93326.04;;;18.99;26.57
61814;BME280;57055;-35.296;149.168;2023-02-03T05:31:00;93321.98;;;19.01;26.42
61814;BME280;57055;-35.296;149.168;2023-02-03T05:33:30;93322.96;;;19.33;26.37
61814;BME280;57055;-35.296;149.168;2023-02-03T05:35:59;93325.33;;;19.33;26.28
61814;BME280;57055;-35.296;149.168;2023-02-03T05:38:27;93332.73;;;19.42;26.01
61814;BME280;57055;-35.296;149.168;2023-02-03T05:40:56;93329.65;;;19.37;25.53
61814;BME280;57055;-35.296;149.168;2023-02-03T05:43:24;93324.45;;;18.98;25.53
61814;BME280;57055;-35.296;149.168;2023-02-03T05:45:59;93315.33;;;19.37;25.10
61814;BME280;57055;-35.296;149.168;2023-02-03T05:48:28;93315.41;;;19.36;25.73
61814;BME280;57055;-35.296;149.168;2023-02-03T05:50:58;93322.06;;;19.38;25.77
61814;BME280;57055;-35.296;149.168;2023-02-03T05:53:27;93325.00;;;19.19;25.82
61814;BME280;57055;-35.296;149.168;2023-02-03T05:55:56;93316.76;;;18.90;25.27
61814;BME280;57055;-35.296;149.168;2023-02-03T05:58:26;93330.97;;;19.19;25.59
61814;BME280;57055;-35.296;149.168;2023-02-03T06:00:54;93329.21;;;18.95;25.59
61814;BME280;57055;-35.296;149.168;2023-02-03T06:03:23;93337.96;;;19.27;25.60
61814;BME280;57055;-35.296;149.168;2023-02-03T06:05:51;93332.98;;;19.22;25.83
61814;BME280;57055;-35.296;149.168;2023-02-03T06:08:20;93337.09;;;19.03;25.32
61814;BME280;57055;-35.296;149.168;2023-02-03T06:10:48;93332.15;;;19.25;25.53
61814;BME280;57055;-35.296;149.168;2023-02-03T06:13:17;93320.54;;;18.72;25.48
61814;BME280;57055;-35.296;149.168;2023-02-03T06:15:46;93344.47;;;19.34;25.51
61814;BME280;57055;-35.296;149.168;2023-02-03T06:18:14;93348.58;;;18.97;25.97
61814;BME280;57055;-35.296;149.168;2023-02-03T06:20:43;93342.66;;;18.98;25.71
61814;BME280;57055;-35.296;149.168;2023-02-03T06:23:11;93350.75;;;18.62;25.67
61814;BME280;57055;-35.296;149.168;2023-02-03T06:25:40;93353.94;;;18.78;25.92
61814;BME280;57055;-35.296;149.168;2023-02-03T06:28:08;93356.76;;;18.63;26.09
61814;BME280;57055;-35.296;149.168;2023-02-03T06:30:37;93351.72;;;18.70;26.04
61814;BME280;57055;-35.296;149.168;2023-02-03T06:33:05;93355.51;;;18.68;26.28
61814;BME280;57055;-35.296;149.168;2023-02-03T06:35:34;93360.61;;;18.71;26.50
61814;BME280;57055;-35.296;149.168;2023-02-03T06:38:03;93351.35;;;18.71;26.43
61814;BME280;57055;-35.296;149.168;2023-02-03T06:40:31;93358.21;;;18.87;26.42
61814;BME280;57055;-35.296;149.168;2023-02-03T06:43:00;93355.50;;;18.92;26.59
61814;BME280;57055;-35.296;149.168;2023-02-03T06:45:28;93351.83;;;18.85;26.52
61814;BME280;57055;-35.296;149.168;2023-02-03T06:47:57;93364.35;;;18.74;26.99
61814;BME280;57055;-35.296;149.168;2023-02-03T06:50:26;93367.71;;;18.56;26.93
61814;BME280;57055;-35.296;149.168;2023-02-03T06:52:55;93366.61;;;18.39;26.27
61814;BME280;57055;-35.296;149.168;2023-02-03T06:55:23;93362.80;;;18.43;26.15
61814;BME280;57055;-35.296;149.168;2023-02-03T06:57:52;93361.63;;;18.41;26.23
61814;BME280;57055;-35.296;149.168;2023-02-03T07:00:21;93366.33;;;18.42;25.93
61814;BME280;57055;-35.296;149.168;2023-02-03T07:02:54;93368.36;;;18.31;25.95
61814;BME280;57055;-35.296;149.168;2023-02-03T07:05:23;93369.66;;;18.33;26.12
61814;BME280;57055;-35.296;149.168;2023-02-03T07:07:53;93370.96;;;18.30;26.19
61814;BME280;57055;-35.296;149.168;2023-02-03T07:10:21;93368.49;;;18.30;26.48
61814;BME280;57055;-35.296;149.168;2023-02-03T07:12:50;93369.55;;;18.31;26.50
61814;BME280;57055;-35.296;149.168;2023-02-03T07:15:19;93377.93;;;18.34;26.44
61814;BME280;57055;-35.296;149.168;2023-02-03T07:17:48;93381.25;;;18.41;25.89
61814;BME280;57055;-35.296;149.168;2023-02-03T07:20:18;93383.01;;;18.46;25.67
61814;BME280;57055;-35.296;149.168;2023-02-03T07:22:52;93385.51;;;18.09;26.01
61814;BME280;57055;-35.296;149.168;2023-02-03T07:25:21;93383.15;;;18.23;26.13
61814;BME280;57055;-35.296;149.168;2023-02-03T07:27:51;93387.27;;;18.30;26.08
61814;BME280;57055;-35.296;149.168;2023-02-03T07:30:20;93393.27;;;18.24;26.29
61814;BME280;57055;-35.296;149.168;2023-02-03T07:32:49;93394.87;;;18.24;26.30
61814;BME280;57055;-35.296;149.168;2023-02-03T07:35:19;93395.66;;;18.23;26.47
61814;BME280;57055;-35.296;149.168;2023-02-03T07:37:48;93399.13;;;18.17;26.33
61814;BME280;57055;-35.296;149.168;2023-02-03T07:40:17;93412.43;;;18.27;26.28
61814;BME280;57055;-35.296;149.168;2023-02-03T07:42:48;93415.69;;;18.10;26.56
61814;BME280;57055;-35.296;149.168;2023-02-03T07:45:18;93420.51;;;18.05;26.63
61814;BME280;57055;-35.296;149.168;2023-02-03T07:47:46;93419.40;;;17.95;26.60
61814;BME280;57055;-35.296;149.168;2023-02-03T07:50:16;93422.74;;;18.15;26.17
61814;BME280;57055;-35.296;149.168;2023-02-03T07:52:45;93423.14;;;17.74;26.61
61814;BME280;57055;-35.296;149.168;2023-02-03T07:55:14;93430.80;;;18.12;26.42
61814;BME280;57055;-35.296;149.168;2023-02-03T07:57:42;93435.44;;;17.98;26.51
61814;BME280;57055;-35.296;149.168;2023-02-03T08:00:13;93439.35;;;17.65;26.83
61814;BME280;57055;-35.296;149.168;2023-02-03T08:02:43;93438.83;;;17.75;26.42
61814;BME280;57055;-35.296;149.168;2023-02-03T08:05:13;93446.12;;;18.15;26.51
61814;BME280;57055;-35.296;149.168;2023-02-03T08:07:43;93453.85;;;17.88;26.44
61814;BME280;57055;-35.296;149.168;2023-02-03T08:10:13;93460.21;;;17.80;25.94
61814;BME280;57055;-35.296;149.168;2023-02-03T08:12:42;93461.17;;;17.53;26.34
61814;BME280;57055;-35.296;149.168;2023-02-03T08:15:12;93461.69;;;17.30;26.66
61814;BME280;57055;-35.296;149.168;2023-02-03T08:17:41;93463.37;;;17.22;26.95
61814;BME280;57055;-35.296;149.168;2023-02-03T08:20:11;93471.63;;;17.53;26.87
61814;BME280;57055;-35.296;149.168;2023-02-03T08:22:40;93474.51;;;17.57;27.30
61814;BME280;57055;-35.296;149.168;2023-02-03T08:25:10;93473.34;;;17.55;27.62
61814;BME280;57055;-35.296;149.168;2023-02-03T08:27:40;93478.28;;;17.54;27.30
61814;BME280;57055;-35.296;149.168;2023-02-03T08:30:12;93485.39;;;17.43;27.62
61814;BME280;57055;-35.296;149.168;2023-02-03T08:32:41;93487.82;;;17.39;27.66
61814;BME280;57055;-35.296;149.168;2023-02-03T08:35:10;93491.91;;;17.19;27.87
61814;BME280;57055;-35.296;149.168;2023-02-03T08:37:40;93494.84;;;17.43;28.02
61814;BME280;57055;-35.296;149.168;2023-02-03T08:40:10;93496.00;;;17.37;28.02
61814;BME280;57055;-35.296;149.168;2023-02-03T08:42:39;93500.98;;;17.03;28.01
61814;BME280;57055;-35.296;149.168;2023-02-03T08:45:09;93507.83;;;17.19;28.26
61814;BME280;57055;-35.296;149.168;2023-02-03T08:47:38;93510.25;;;17.11;27.99
61814;BME280;57055;-35.296;149.168;2023-02-03T08:50:08;93516.10;;;17.32;28.02
61814;BME280;57055;-35.296;149.168;2023-02-03T08:52:38;93520.98;;;17.01;27.87
61814;BME280;57055;-35.296;149.168;2023-02-03T08:55:09;93528.20;;;17.11;27.51
61814;BME280;57055;-35.296;149.168;2023-02-03T08:57:38;93531.57;;;16.76;27.63
61814;BME280;57055;-35.296;149.168;2023-02-03T09:00:08;93530.66;;;16.86;27.75
61814;BME280;57055;-35.296;149.168;2023-02-03T09:02:37;93536.73;;;16.78;27.63
61814;BME280;57055;-35.296;149.168;2023-02-03T09:05:08;93546.34;;;16.78;27.86
61814;BME280;57055;-35.296;149.168;2023-02-03T09:07:37;93550.52;;;16.74;27.86
61814;BME280;57055;-35.296;149.168;2023-02-03T09:10:06;93556.65;;;16.74;27.82
61814;BME280;57055;-35.296;149.168;2023-02-03T09:12:35;93558.68;;;16.64;27.78
61814;BME280;57055;-35.296;149.168;2023-02-03T09:15:04;93557.23;;;16.58;28.23
61814;BME280;57055;-35.296;149.168;2023-02-03T09:17:33;93560.98;;;16.80;28.15
61814;BME280;57055;-35.296;149.168;2023-02-03T09:20:02;93561.60;;;16.74;28.07
61814;BME280;57055;-35.296;149.168;2023-02-03T09:22:30;93562.70;;;17.01;28.14
61814;BME280;57055;-35.296;149.168;2023-02-03T09:24:59;93570.17;;;16.66;28.26
61814;BME280;57055;-35.296;149.168;2023-02-03T09:27:27;93569.49;;;16.59;28.23
61814;BME280;57055;-35.296;149.168;2023-02-03T09:29:56;93574.47;;;16.56;28.21
61814;BME280;57055;-35.296;149.168;2023-02-03T09:32:25;93577.06;;;16.29;28.67
61814;BME280;57055;-35.296;149.168;2023-02-03T09:34:53;93580.81;;;16.40;29.15
61814;BME280;57055;-35.296;149.168;2023-02-03T09:37:22;93584.11;;;16.37;28.91
61814;BME280;57055;-35.296;149.168;2023-02-03T09:39:50;93590.76;;;16.57;28.81
61814;BME280;57055;-35.296;149.168;2023-02-03T09:42:32;93597.30;;;16.35;28.89
61814;BME280;57055;-35.296;149.168;2023-02-03T09:45:13;93598.86;;;16.69;28.93
61814;BME280;57055;-35.296;149.168;2023-02-03T09:47:45;93602.36;;;16.40;29.03
61814;BME280;57055;-35.296;149.168;2023-02-03T09:50:19;93606.80;;;16.48;29.71
61814;BME280;57055;-35.296;149.168;2023-02-03T09:52:50;93612.88;;;16.02;29.85
61814;BME280;57055;-35.296;149.168;2023-02-03T09:55:29;93613.48;;;16.19;29.79
61814;BME280;57055;-35.296;149.168;2023-02-03T09:58:05;93618.07;;;15.90;29.94
61814;BME280;57055;-35.296;149.168;2023-02-03T10:00:41;93621.92;;;15.86;30.04
61814;BME280;57055;-35.296;149.168;2023-02-03T10:03:17;93620.28;;;16.04;30.41
61814;BME280;57055;-35.296;149.168;2023-02-03T10:06:03;93622.07;;;15.98;30.46
61814;BME280;57055;-35.296;149.168;2023-02-03T10:08:49;93632.72;;;15.87;30.91
61814;BME280;57055;-35.296;149.168;2023-02-03T10:11:27;93634.76;;;15.70;30.93
61814;BME280;57055;-35.296;149.168;2023-02-03T10:14:10;93640.04;;;15.62;31.34
61814;BME280;57055;-35.296;149.168;2023-02-03T10:16:55;93641.93;;;15.76;31.34
61814;BME280;57055;-35.296;149.168;2023-02-03T10:19:35;93649.92;;;15.48;31.80
61814;BME280;57055;-35.296;149.168;2023-02-03T10:22:07;93655.38;;;15.36;31.80
61814;BME280;57055;-35.296;149.168;2023-02-03T10:24:42;93659.53;;;15.36;31.63
61814;BME280;57055;-35.296;149.168;2023-02-03T10:27:17;93661.57;;;15.37;31.48
61814;BME280;57055;-35.296;149.168;2023-02-03T10:29:53;93661.39;;;15.35;31.49
61814;BME280;57055;-35.296;149.168;2023-02-03T10:32:27;93661.12;;;15.32;31.54
61814;BME280;57055;-35.296;149.168;2023-02-03T10:34:56;93667.15;;;15.66;31.69
61814;BME280;57055;-35.296;149.168;2023-02-03T10:37:28;93670.61;;;15.26;31.26
61814;BME280;57055;-35.296;149.168;2023-02-03T10:39:58;93672.75;;;15.18;31.55
61814;BME280;57055;-35.296;149.168;2023-02-03T10:42:29;93674.35;;;15.19;31.53
61814;BME280;57055;-35.296;149.168;2023-02-03T10:45:00;93680.61;;;15.35;31.64
61814;BME280;57055;-35.296;149.168;2023-02-03T10:47:33;93683.69;;;15.25;31.58
61814;BME280;57055;-35.296;149.168;2023-02-03T10:50:08;93685.45;;;15.08;31.34
61814;BME280;57055;-35.296;149.168;2023-02-03T10:52:43;93686.72;;;15.19;31.23
61814;BME280;57055;-35.296;149.168;2023-02-03T10:55:31;93692.37;;;15.22;31.52
61814;BME280;57055;-35.296;149.168;2023-02-03T10:58:09;93693.36;;;15.14;31.66
61814;BME280;57055;-35.296;149.168;2023-02-03T11:00:43;93697.94;;;15.22;31.40
61814;BME280;57055;-35.296;149.168;2023-02-03T11:03:22;93697.12;;;15.21;31.42
61814;BME280;57055;-35.296;149.168;2023-02-03T11:06:06;93701.13;;;15.15;31.41
61814;BME280;57055;-35.296;149.168;2023-02-03T11:08:36;93703.28;;;15.32;31.62
61814;BME280;57055;-35.296;149.168;2023-02-03T11:11:07;93702.95;;;15.24;31.62
61814;BME280;57055;-35.296;149.168;2023-02-03T11:13:36;93705.40;;;14.88;31.77
61814;BME280;57055;-35.296;149.168;2023-02-03T11:16:10;93712.71;;;15.22;31.79
61814;BME280;57055;-35.296;149.168;2023-02-03T11:18:46;93721.58;;;14.96;32.14
61814;BME280;57055;-35.296;149.168;2023-02-03T11:21:19;93725.20;;;14.95;32.02
61814;BME280;57055;-35.296;149.168;2023-02-03T11:23:52;93725.73;;;15.24;32.04
61814;BME280;57055;-35.296;149.168;2023-02-03T11:26:24;93733.21;;;15.02;31.82
61814;BME280;57055;-35.296;149.168;2023-02-03T11:28:57;93734.79;;;14.97;31.90
61814;BME280;57055;-35.296;149.168;2023-02-03T11:31:28;93735.45;;;14.73;32.07
61814;BME280;57055;-35.296;149.168;2023-02-03T11:33:59;93743.61;;;15.03;32.39
61814;BME280;57055;-35.296;149.168;2023-02-03T11:36:31;93745.79;;;15.00;32.64
61814;BME280;57055;-35.296;149.168;2023-02-03T11:39:32;93751.32;;;14.85;32.69
61814;BME280;57055;-35.296;149.168;2023-02-03T11:42:02;93749.60;;;14.72;32.96
61814;BME280;57055;-35.296;149.168;2023-02-03T11:44:48;93751.75;;;15.10;33.43
61814;BME280;57055;-35.296;149.168;2023-02-03T11:47:17;93750.77;;;15.05;33.72
61814;BME280;57055;-35.296;149.168;2023-02-03T11:50:17;93747.20;;;14.67;34.13
61814;BME280;57055;-35.296;149.168;2023-02-03T11:53:03;93752.57;;;14.43;34.55
61814;BME280;57055;-35.296;149.168;2023-02-03T11:55:44;93752.90;;;14.81;34.95
61814;BME280;57055;-35.296;149.168;2023-02-03T11:58:34;93749.85;;;14.20;35.36
61814;BME280;57055;-35.296;149.168;2023-02-03T12:01:15;93739.83;;;14.75;35.56
61814;BME280;57055;-35.296;149.168;2023-02-03T12:04:17;93743.10;;;14.72;35.96
61814;BME280;57055;-35.296;149.168;2023-02-03T12:07:21;93742.98;;;14.44;36.44
61814;BME280;57055;-35.296;149.168;2023-02-03T12:10:01;93744.17;;;14.73;36.65
61814;BME280;57055;-35.296;149.168;2023-02-03T12:12:41;93751.60;;;14.59;36.64
61814;BME280;57055;-35.296;149.168;2023-02-03T12:15:23;93752.93;;;14.86;36.55
61814;BME280;57055;-35.296;149.168;2023-02-03T12:18:11;93750.24;;;14.88;36.50
61814;BME280;57055;-35.296;149.168;2023-02-03T12:20:55;93750.60;;;14.61;36.71
61814;BME280;57055;-35.296;149.168;2023-02-03T12:23:39;93750.07;;;14.67;36.99
61814;BME280;57055;-35.296;149.168;2023-02-03T12:26:17;93749.96;;;14.60;37.29
61814;BME280;57055;-35.296;149.168;2023-02-03T12:28:55;93753.88;;;14.52;37.28
61814;BME280;57055;-35.296;149.168;2023-02-03T12:31:35;93752.13;;;14.46;37.45
61814;BME280;57055;-35.296;149.168;2023-02-03T12:34:16;93746.10;;;14.44;37.56
61814;BME280;57055;-35.296;149.168;2023-02-03T12:36:49;93747.15;;;14.41;37.45
61814;BME280;57055;-35.296;149.168;2023-02-03T12:39:26;93741.89;;;14.62;37.18
61814;BME280;57055;-35.296;149.168;2023-02-03T12:42:00;93743.34;;;14.36;37.16
61814;BME280;57055;-35.296;149.168;2023-02-03T12:44:38;93746.49;;;14.31;37.00
61814;BME280;57055;-35.296;149.168;2023-02-03T12:47:17;93751.05;;;14.33;36.67
61814;BME280;57055;-35.296;149.168;2023-02-03T12:49:53;93753.17;;;14.31;36.79
61814;BME280;57055;-35.296;149.168;2023-02-03T12:52:29;93747.75;;;14.20;37.19
61814;BME280;57055;-35.296;149.168;2023-02-03T12:55:15;93746.30;;;14.15;37.42
61814;BME280;57055;-35.296;149.168;2023-02-03T12:57:50;93751.42;;;14.13;37.66